createdAt,value
2023-03-28T00:02:17.611Z,1.57
2023-03-28T00:07:42.936Z,1.50
2023-03-28T00:13:23.135Z,1.80
2023-03-28T00:18:51.101Z,1.60
2023-03-28T00:24:20.398Z,1.53
2023-03-28T00:29:43.533Z,1.43
2023-03-28T00:35:05.602Z,1.77
2023-03-28T00:40:32.965Z,1.80
2023-03-28T00:46:09.402Z,1.77
2023-03-28T00:52:12.702Z,1.70
2023-03-28T00:57:42.391Z,1.60
2023-03-28T01:03:16.918Z,1.50
2023-03-28T01:08:53.034Z,1.67
2023-03-28T01:14:22.700Z,1.70
2023-03-28T01:20:29.354Z,1.70
2023-03-28T01:26:31.664Z,2.07
2023-03-28T01:32:31.004Z,1.57
2023-03-28T01:38:39.478Z,1.23
2023-03-28T01:44:35.473Z,2.10
2023-03-28T01:50:24.240Z,1.40
2023-03-28T01:56:30.223Z,1.40
2023-03-28T02:02:36.831Z,1.60
2023-03-28T02:08:23.491Z,1.20
2023-03-28T02:14:22.633Z,1.87
2023-03-28T02:20:15.225Z,1.80
2023-03-28T02:26:27.008Z,1.60
2023-03-28T02:32:17.405Z,1.67
2023-03-28T02:38:17.302Z,1.70
2023-03-28T02:43:53.419Z,1.40
2023-03-28T02:49:50.066Z,1.70
2023-03-28T02:55:22.885Z,1.60
2023-03-28T03:00:52.751Z,1.80
2023-03-28T03:06:38.277Z,2.23
2023-03-28T03:12:17.284Z,2.33
2023-03-28T03:17:55.861Z,1.90
2023-03-28T03:23:38.144Z,1.70
2023-03-28T03:29:13.826Z,1.90
2023-03-28T03:34:39.447Z,2.23
2023-03-28T03:40:01.425Z,1.80
2023-03-28T03:45:30.473Z,1.60
2023-03-28T03:51:20.109Z,2.10
2023-03-28T03:57:08.965Z,2.27
2023-03-28T04:03:07.490Z,1.47
2023-03-28T04:09:00.288Z,2.30
2023-03-28T04:15:05.247Z,2.30
2023-03-28T04:20:36.631Z,1.83
2023-03-28T04:26:30.327Z,2.00
2023-03-28T04:32:31.240Z,2.83
2023-03-28T04:38:20.467Z,1.97
2023-03-28T04:44:16.121Z,1.87
2023-03-28T04:49:44.415Z,1.50
2023-03-28T04:55:08.284Z,1.80
2023-03-28T05:00:29.893Z,2.20
2023-03-28T05:06:22.011Z,2.60
2023-03-28T05:11:53.968Z,2.00
2023-03-28T05:17:31.860Z,2.13
2023-03-28T05:23:06.298Z,2.00
2023-03-28T05:28:46.825Z,1.70
2023-03-28T05:34:22.403Z,2.77
2023-03-28T05:39:45.633Z,2.87
2023-03-28T05:45:09.440Z,2.33
2023-03-28T05:50:53.533Z,4.30
2023-03-28T05:56:28.842Z,3.27
2023-03-28T06:02:16.189Z,3.07
2023-03-28T06:07:44.884Z,2.73
2023-03-28T06:13:17.305Z,3.47
2023-03-28T06:19:14.337Z,3.50
2023-03-28T06:24:44.470Z,3.20
2023-03-28T06:30:07.268Z,2.70
2023-03-28T06:35:36.817Z,3.97
2023-03-28T06:41:27.912Z,3.40
2023-03-28T06:47:17.992Z,3.50
2023-03-28T06:53:04.006Z,2.67
2023-03-28T06:58:46.338Z,3.33
2023-03-28T07:04:30.930Z,2.00
2023-03-28T07:10:18.312Z,3.07
2023-03-28T07:15:42.899Z,3.60
2023-03-28T07:21:26.860Z,3.33
2023-03-28T07:27:29.589Z,3.03
2023-03-28T07:33:18.038Z,3.40
2023-03-28T07:39:06.473Z,3.77
2023-03-28T07:44:32.297Z,3.00
2023-03-28T07:49:53.762Z,4.00
2023-03-28T07:55:16.077Z,3.30
2023-03-28T08:00:43.297Z,3.10
2023-03-28T08:06:46.955Z,3.40
2023-03-28T08:12:14.174Z,2.50
2023-03-28T08:18:12.454Z,2.53
2023-03-28T08:23:48.037Z,2.03
2023-03-28T08:29:32.023Z,2.60
2023-03-28T08:34:58.011Z,3.57
2023-03-28T08:40:21.982Z,3.50
2023-03-28T08:46:26.135Z,4.20
2023-03-28T08:52:19.861Z,2.93
2023-03-28T08:58:11.809Z,3.60
2023-03-28T09:03:53.095Z,3.30
2023-03-28T09:09:32.415Z,2.80
2023-03-28T09:15:33.020Z,2.53
2023-03-28T09:21:34.946Z,2.13
2023-03-28T09:27:37.349Z,2.83
2023-03-28T09:33:32.644Z,3.70
2023-03-28T09:39:26.423Z,2.63
2023-03-28T09:45:07.866Z,3.13
2023-03-28T09:50:50.082Z,3.43
2023-03-28T09:56:44.290Z,2.73
2023-03-28T10:03:09.656Z,2.80
2023-03-28T10:09:27.218Z,2.50
2023-03-28T10:14:58.193Z,2.53
2023-03-28T10:20:41.626Z,2.90
2023-03-28T10:26:33.241Z,1.83
2023-03-28T10:32:15.991Z,1.90
2023-03-28T10:38:14.229Z,2.10
2023-03-28T10:43:56.592Z,1.60
2023-03-28T10:49:48.895Z,1.87
2023-03-28T10:55:26.535Z,1.87
2023-03-28T11:01:54.649Z,1.60
2023-03-28T11:07:48.901Z,1.63
2023-03-28T11:13:59.330Z,1.57
2023-03-28T11:19:37.380Z,1.43
2023-03-28T11:25:21.944Z,1.50
2023-03-28T11:31:27.062Z,2.57
2023-03-28T11:37:52.106Z,2.23
2023-03-28T11:43:39.723Z,1.63
2023-03-28T11:49:29.134Z,1.60
2023-03-28T11:54:56.812Z,1.83
2023-03-28T12:01:04.016Z,1.47
2023-03-28T12:07:09.508Z,1.83
2023-03-28T12:13:09.004Z,1.70
2023-03-28T12:18:59.214Z,1.97
2023-03-28T12:24:54.840Z,2.40
2023-03-28T12:30:29.385Z,1.80
2023-03-28T12:36:36.415Z,2.10
2023-03-28T12:42:34.356Z,2.17
2023-03-28T12:48:26.171Z,2.07
2023-03-28T12:54:21.692Z,1.67
2023-03-28T12:59:51.912Z,1.77
2023-03-28T13:06:38.506Z,1.47
2023-03-28T13:12:21.175Z,1.63
2023-03-28T13:18:27.785Z,2.13
2023-03-28T13:24:07.145Z,1.93
2023-03-28T13:29:52.470Z,2.17
2023-03-28T13:35:45.428Z,1.90
2023-03-28T13:41:45.822Z,2.10
2023-03-28T13:47:34.751Z,2.00
2023-03-28T13:53:06.950Z,1.70
2023-03-28T13:58:45.334Z,1.80
2023-03-28T14:04:31.194Z,1.67
2023-03-28T14:10:00.431Z,2.23
2023-03-28T14:15:32.360Z,2.70
2023-03-28T14:21:23.242Z,1.50
2023-03-28T14:27:18.012Z,1.77
2023-03-28T14:33:24.175Z,1.80
2023-03-28T14:39:18.860Z,2.10
2023-03-28T14:44:44.644Z,2.03
2023-03-28T14:50:07.215Z,1.90
2023-03-28T14:55:31.931Z,1.83
2023-03-28T15:00:56.019Z,1.73
2023-03-28T15:06:32.736Z,2.20
2023-03-28T15:12:12.821Z,1.83
2023-03-28T15:17:52.825Z,2.03
2023-03-28T15:23:48.290Z,2.10
2023-03-28T15:29:19.645Z,2.23
2023-03-28T15:34:56.428Z,2.73
2023-03-28T15:40:17.919Z,3.00
2023-03-28T15:45:44.314Z,2.50
2023-03-28T15:51:43.008Z,2.20
2023-03-28T15:57:31.668Z,2.10
2023-03-28T16:03:35.970Z,2.40
2023-03-28T16:09:34.789Z,2.57
2023-03-28T16:14:58.386Z,2.30
2023-03-28T16:20:40.965Z,2.37
2023-03-28T16:26:24.634Z,3.20
2023-03-28T16:32:01.974Z,2.70
2023-03-28T16:37:46.463Z,3.20
2023-03-28T16:43:20.827Z,2.40
2023-03-28T16:49:02.052Z,2.13
2023-03-28T16:54:30.216Z,2.53
2023-03-28T16:59:52.259Z,1.80
2023-03-28T17:05:36.385Z,2.70
2023-03-28T17:11:28.436Z,2.70
2023-03-28T17:17:14.101Z,3.40
2023-03-28T17:22:55.949Z,6.80
2023-03-28T17:28:45.995Z,6.00
2023-03-28T17:34:20.554Z,5.37
2023-03-28T17:39:42.721Z,3.20
2023-03-28T17:45:04.636Z,2.27
2023-03-28T17:50:26.946Z,2.30
2023-03-28T17:55:49.770Z,2.23
2023-03-28T18:01:13.694Z,2.20
2023-03-28T18:06:35.488Z,2.33
2023-03-28T18:12:20.264Z,2.23
2023-03-28T18:18:00.626Z,2.00
2023-03-28T18:23:37.058Z,2.03
2023-03-28T18:29:11.063Z,2.00
2023-03-28T18:34:42.535Z,1.63
2023-03-28T18:40:07.646Z,1.73
2023-03-28T18:45:31.723Z,2.17
2023-03-28T18:51:27.794Z,10.97
2023-03-28T18:57:12.667Z,15.20
2023-03-28T19:03:17.845Z,10.33
2023-03-28T19:09:00.524Z,11.13
2023-03-28T19:14:24.841Z,9.80
2023-03-28T19:19:46.548Z,7.43
2023-03-28T19:25:09.402Z,8.10
2023-03-28T19:30:34.299Z,6.37
2023-03-28T19:36:30.264Z,5.57
2023-03-28T19:42:05.999Z,5.63
2023-03-28T19:47:47.545Z,6.17
2023-03-28T19:53:25.153Z,6.47
2023-03-28T19:59:05.180Z,7.00
2023-03-28T20:04:52.708Z,6.73
2023-03-28T20:10:16.853Z,6.27
2023-03-28T20:15:41.265Z,6.80
2023-03-28T20:21:31.877Z,7.10
2023-03-28T20:27:13.164Z,6.80
2023-03-28T20:33:04.980Z,6.50
2023-03-28T20:38:42.455Z,6.30
2023-03-28T20:44:12.165Z,6.00
2023-03-28T20:49:38.411Z,6.33
2023-03-28T20:55:00.183Z,6.10
2023-03-28T21:00:24.358Z,6.20
2023-03-28T21:05:59.509Z,6.00
2023-03-28T21:11:32.158Z,6.10
2023-03-28T21:17:16.603Z,6.40
2023-03-28T21:22:58.882Z,6.53
2023-03-28T21:28:33.835Z,5.50
2023-03-28T21:34:08.420Z,6.43
2023-03-28T21:39:34.632Z,6.60
2023-03-28T21:44:55.981Z,6.23
2023-03-28T21:50:18.239Z,6.73
2023-03-28T21:55:39.577Z,6.97
2023-03-28T22:01:03.049Z,6.67
2023-03-28T22:06:49.296Z,6.53
2023-03-28T22:12:41.842Z,5.73
2023-03-28T22:18:17.291Z,6.10
2023-03-28T22:23:56.492Z,6.20
2023-03-28T22:29:25.448Z,5.37
2023-03-28T22:34:48.254Z,5.17
2023-03-28T22:40:11.093Z,4.97
2023-03-28T22:45:33.179Z,4.90
2023-03-28T22:51:18.343Z,5.00
2023-03-28T22:57:12.006Z,4.43
2023-03-28T23:02:56.547Z,5.33
2023-03-28T23:08:29.823Z,4.37
2023-03-28T23:14:08.788Z,4.67
2023-03-28T23:19:32.460Z,4.90
2023-03-28T23:24:53.849Z,4.33
2023-03-28T23:30:16.308Z,3.90
2023-03-28T23:35:37.585Z,4.20
2023-03-28T23:41:20.257Z,4.13
2023-03-28T23:47:09.327Z,3.87
2023-03-28T23:52:57.805Z,3.63
2023-03-28T23:58:30.788Z,3.63
